Surface observations / UK / EGMC

Quebec | Canada | USA | France | UK | Europe | Elsewhere

Display: Info & Location for EGMC | Help decoding METAR

EGMC SOUTHEND-ON-SEA -- UK
Raw surface observations for station EGMC
EGMC 261850Z 11007KT 9999 FEW030 22/17 Q1016=
EGMC 261820Z 11006KT 9999 FEW030 23/17 Q1015=
EGMC 261750Z 10007KT 9999 FEW030 23/16 Q1015=
EGMC 261720Z 11008KT 080V140 9999 FEW030 24/17 Q1015=
EGMC 261650Z 12009KT 080V140 9999 FEW030 24/17 Q1015=
EGMC 261620Z 02008KT 340V080 CAVOK 26/14 Q1015=
EGMC 261550Z 04004KT 360V080 CAVOK 27/13 Q1015=
EGMC 261520Z 03006KT 360V060 9999 VCSH NSC 26/13 Q1015=
EGMC 261450Z 02008KT 330V060 9999 -SHRA NSC 27/13 Q1015=
EGMC 261420Z 32007KT 280V350 CAVOK 28/13 Q1015=
EGMC 261350Z 30004KT 280V010 CAVOK 27/14 Q1015=
EGMC 261320Z 30005KT 250V350 CAVOK 27/14 Q1015=
EGMC 261250Z 33005KT 290V350 9999 FEW044 26/15 Q1015=
EGMC 261220Z 04006KT 330V090 9999 FEW046 26/15 Q1015=
EGMC 261150Z 03006KT 290V100 9999 FEW043 27/15 Q1015=
EGMC 261120Z VRB06KT 9999 FEW043 26/15 Q1015=
EGMC 261050Z 02006KT 330V080 9999 FEW040 26/15 Q1016=
EGMC 261020Z 34005KT 210V020 CAVOK 24/15 Q1016=
EGMC 260950Z VRB05KT CAVOK 23/16 Q1016=
EGMC 260920Z 34005KT 290V030 CAVOK 22/15 Q1016=
EGMC 260850Z 34006KT CAVOK 22/16 Q1016=
EGMC 260820Z 32006KT 290V010 CAVOK 20/16 Q1016=
EGMC 260750Z 32008KT CAVOK 19/16 Q1016=
EGMC 260720Z 33007KT 9000 FEW020 19/16 Q1016=
EGMC 260650Z 33007KT 290V350 9000 FEW020 18/15 Q1016=
EGMC 260620Z 34007KT 9999 FEW020 18/16 Q1016=
EGMC 260550Z 35006KT 9999 FEW020 17/15 Q1016=
EGMC 260520Z 35007KT 9999 FEW013 16/14 Q1016=
EGMC 260450Z 36006KT 9999 FEW013 SCT020 17/14 Q1015=
EGMC 260420Z 36007KT 9999 FEW021 SCT036 17/14 Q1015=
EGMC 260350Z 34005KT 9999 FEW024 BKN036 17/15 Q1015=
EGMC 260150Z 26004KT 9999 FEW022 18/16 Q1015=
EGMC 260050Z 26004KT 9999 FEW015 19/16 Q1016=
EGMC 252350Z 28002KT 9999 FEW015 18/16 Q1016=
EGMC 252250Z 08002KT 9999 FEW015 19/16 Q1016=
EGMC 252220Z 36004KT 9999 FEW022 19/16 Q1016=
EGMC 252150Z 02004KT 9999 FEW022 20/16 Q1016=
EGMC 252050Z 04007KT 9999 FEW022 20/17 Q1016=
EGMC 252020Z 03005KT 9999 VCSH FEW030 20/18 Q1016=
EGMC 251950Z 05005KT 9999 VCSH FEW030 20/17 Q1016=
EGMC 251920Z 05003KT 9999 VCSH FEW023 19/17 Q1016=